Elorrio, Spain
Current Conditions -  °F | °C
As of 4:00 AM on Saturday 20 Dec 2014 (Local Time) from LEVT Reporting Station
Broken Clouds Broken Clouds  
Wind Chill: 37°   Ceiling: 1400
Heat Index: 43°   Visibility: 6mi
Dew Point: 41°   Wind: 9mph
Humidity: 93%   Direction: 230°SW
Pressure: 30.53"   Gusts: NA
Location:  43.13°N, 2.54°W
Report Text: LEVT 200300Z 23008KT 9999 BKN014 06/05 Q1034
Loading
Personal Weather Stations






























Interactive Weather Map New forecast layout! Learn more

10-Day Weather Forecast

Advertisements
Track Severe Weather on mobile